sensor_id;sensor_type;location;lat;lon;timestamp;temperature;humidity
569;DHT22;269;48.884;9.192;2023-05-10T00:02:10;13.90;99.90
569;DHT22;269;48.884;9.192;2023-05-10T00:04:38;13.80;99.90
569;DHT22;269;48.884;9.192;2023-05-10T00:07:05;13.80;99.90
569;DHT22;269;48.884;9.192;2023-05-10T00:09:33;13.70;99.90
569;DHT22;269;48.884;9.192;2023-05-10T00:12:00;13.70;99.90
569;DHT22;269;48.884;9.192;2023-05-10T00:14:27;13.60;99.90
569;DHT22;269;48.884;9.192;2023-05-10T00:16:54;13.50;99.90
569;DHT22;269;48.884;9.192;2023-05-10T00:19:21;13.50;99.90
569;DHT22;269;48.884;9.192;2023-05-10T00:21:49;13.40;99.90
569;DHT22;269;48.884;9.192;2023-05-10T00:24:16;13.40;99.90
569;DHT22;269;48.884;9.192;2023-05-10T00:26:43;13.30;99.90
569;DHT22;269;48.884;9.192;2023-05-10T00:29:10;13.30;99.90
569;DHT22;269;48.884;9.192;2023-05-10T00:31:37;13.20;99.90
569;DHT22;269;48.884;9.192;2023-05-10T00:34:04;13.20;99.90
569;DHT22;269;48.884;9.192;2023-05-10T00:36:31;13.10;99.90
569;DHT22;269;48.884;9.192;2023-05-10T00:39:00;13.10;99.90
569;DHT22;269;48.884;9.192;2023-05-10T00:41:27;13.10;99.90
569;DHT22;269;48.884;9.192;2023-05-10T00:43:54;13.10;99.90
569;DHT22;269;48.884;9.192;2023-05-10T00:46:21;13.00;99.90
569;DHT22;269;48.884;9.192;2023-05-10T00:48:48;13.00;99.90
569;DHT22;269;48.884;9.192;2023-05-10T00:51:16;13.00;99.90
569;DHT22;269;48.884;9.192;2023-05-10T00:53:44;13.00;99.90
569;DHT22;269;48.884;9.192;2023-05-10T00:56:13;13.00;99.90
569;DHT22;269;48.884;9.192;2023-05-10T00:58:40;13.00;99.90
569;DHT22;269;48.884;9.192;2023-05-10T01:01:08;13.00;99.90
569;DHT22;269;48.884;9.192;2023-05-10T01:03:36;13.00;99.90
569;DHT22;269;48.884;9.192;2023-05-10T01:06:03;13.00;99.90
569;DHT22;269;48.884;9.192;2023-05-10T01:08:30;13.00;99.90
569;DHT22;269;48.884;9.192;2023-05-10T01:10:58;13.00;99.90
569;DHT22;269;48.884;9.192;2023-05-10T01:13:31;13.00;99.90
569;DHT22;269;48.884;9.192;2023-05-10T01:16:00;13.00;99.90
569;DHT22;269;48.884;9.192;2023-05-10T01:18:29;13.00;99.90
569;DHT22;269;48.884;9.192;2023-05-10T01:21:17;13.00;99.90
569;DHT22;269;48.884;9.192;2023-05-10T01:27:15;13.00;99.90
569;DHT22;269;48.884;9.192;2023-05-10T01:30:16;13.00;99.90
569;DHT22;269;48.884;9.192;2023-05-10T01:32:53;13.00;99.90
569;DHT22;269;48.884;9.192;2023-05-10T01:35:29;13.00;99.90
569;DHT22;269;48.884;9.192;2023-05-10T01:38:04;13.00;99.90
569;DHT22;269;48.884;9.192;2023-05-10T01:40:39;13.00;99.90
569;DHT22;269;48.884;9.192;2023-05-10T01:43:21;13.00;99.90
569;DHT22;269;48.884;9.192;2023-05-10T01:45:59;13.00;99.90
569;DHT22;269;48.884;9.192;2023-05-10T01:48:32;13.00;99.90
569;DHT22;269;48.884;9.192;2023-05-10T01:50:59;13.00;99.90
569;DHT22;269;48.884;9.192;2023-05-10T01:53:27;13.00;99.90
569;DHT22;269;48.884;9.192;2023-05-10T01:55:55;13.00;99.90
569;DHT22;269;48.884;9.192;2023-05-10T01:58:27;13.00;99.90
569;DHT22;269;48.884;9.192;2023-05-10T02:00:55;13.00;99.90
569;DHT22;269;48.884;9.192;2023-05-10T02:03:25;13.00;99.90
569;DHT22;269;48.884;9.192;2023-05-10T02:05:56;13.00;99.90
569;DHT22;269;48.884;9.192;2023-05-10T02:08:24;13.00;99.90
569;DHT22;269;48.884;9.192;2023-05-10T02:10:54;13.00;99.90
569;DHT22;269;48.884;9.192;2023-05-10T02:13:23;13.00;99.90
569;DHT22;269;48.884;9.192;2023-05-10T02:15:53;13.00;99.90
569;DHT22;269;48.884;9.192;2023-05-10T02:18:21;13.00;99.90
569;DHT22;269;48.884;9.192;2023-05-10T02:20:49;13.00;99.90
569;DHT22;269;48.884;9.192;2023-05-10T02:23:20;12.90;99.90
569;DHT22;269;48.884;9.192;2023-05-10T02:25:48;12.90;99.90
569;DHT22;269;48.884;9.192;2023-05-10T02:28:18;13.00;99.90
569;DHT22;269;48.884;9.192;2023-05-10T02:30:47;13.00;99.90
569;DHT22;269;48.884;9.192;2023-05-10T02:33:15;12.90;99.90
569;DHT22;269;48.884;9.192;2023-05-10T02:35:42;12.90;99.90
569;DHT22;269;48.884;9.192;2023-05-10T02:38:10;12.90;99.90
569;DHT22;269;48.884;9.192;2023-05-10T02:40:41;13.00;99.90
569;DHT22;269;48.884;9.192;2023-05-10T02:43:12;12.90;99.90
569;DHT22;269;48.884;9.192;2023-05-10T02:45:40;13.20;99.90
569;DHT22;269;48.884;9.192;2023-05-10T02:48:08;13.00;99.90
569;DHT22;269;48.884;9.192;2023-05-10T02:50:36;13.00;99.90
569;DHT22;269;48.884;9.192;2023-05-10T02:53:21;12.90;99.90
569;DHT22;269;48.884;9.192;2023-05-10T02:55:52;12.90;99.90
569;DHT22;269;48.884;9.192;2023-05-10T02:58:19;12.90;99.90
569;DHT22;269;48.884;9.192;2023-05-10T03:00:46;12.90;99.90
569;DHT22;269;48.884;9.192;2023-05-10T03:03:14;13.00;99.90
569;DHT22;269;48.884;9.192;2023-05-10T03:05:41;13.00;99.90
569;DHT22;269;48.884;9.192;2023-05-10T03:08:08;13.00;99.90
569;DHT22;269;48.884;9.192;2023-05-10T03:10:41;13.00;99.90
569;DHT22;269;48.884;9.192;2023-05-10T03:13:22;13.00;99.90
569;DHT22;269;48.884;9.192;2023-05-10T03:15:57;13.10;99.90
569;DHT22;269;48.884;9.192;2023-05-10T03:18:29;13.10;99.90
569;DHT22;269;48.884;9.192;2023-05-10T03:21:03;13.10;99.90
569;DHT22;269;48.884;9.192;2023-05-10T03:23:35;13.10;99.90
569;DHT22;269;48.884;9.192;2023-05-10T03:26:04;13.10;99.90
569;DHT22;269;48.884;9.192;2023-05-10T03:28:34;13.00;99.90
569;DHT22;269;48.884;9.192;2023-05-10T03:31:02;13.10;99.90
569;DHT22;269;48.884;9.192;2023-05-10T03:33:30;13.00;99.90
569;DHT22;269;48.884;9.192;2023-05-10T03:35:58;13.00;99.90
569;DHT22;269;48.884;9.192;2023-05-10T03:38:25;13.10;99.90
569;DHT22;269;48.884;9.192;2023-05-10T03:40:52;13.10;99.90
569;DHT22;269;48.884;9.192;2023-05-10T03:43:19;13.10;99.90
569;DHT22;269;48.884;9.192;2023-05-10T03:45:47;13.10;99.90
569;DHT22;269;48.884;9.192;2023-05-10T03:48:14;13.10;99.90
569;DHT22;269;48.884;9.192;2023-05-10T03:50:41;13.10;99.90
569;DHT22;269;48.884;9.192;2023-05-10T03:53:08;13.10;99.90
569;DHT22;269;48.884;9.192;2023-05-10T03:55:35;13.10;99.90
569;DHT22;269;48.884;9.192;2023-05-10T03:58:02;13.10;99.90
569;DHT22;269;48.884;9.192;2023-05-10T04:00:29;13.00;99.90
569;DHT22;269;48.884;9.192;2023-05-10T04:02:58;13.00;99.90
569;DHT22;269;48.884;9.192;2023-05-10T04:05:26;13.00;99.90
569;DHT22;269;48.884;9.192;2023-05-10T04:07:53;13.00;99.90
569;DHT22;269;48.884;9.192;2023-05-10T04:10:20;13.00;99.90
569;DHT22;269;48.884;9.192;2023-05-10T04:12:47;12.90;99.90
569;DHT22;269;48.884;9.192;2023-05-10T04:15:15;13.00;99.90
569;DHT22;269;48.884;9.192;2023-05-10T04:17:42;13.00;99.90
569;DHT22;269;48.884;9.192;2023-05-10T04:20:11;13.00;99.90
569;DHT22;269;48.884;9.192;2023-05-10T04:22:38;13.00;99.90
569;DHT22;269;48.884;9.192;2023-05-10T04:25:06;13.00;99.90
569;DHT22;269;48.884;9.192;2023-05-10T04:27:33;13.10;99.90
569;DHT22;269;48.884;9.192;2023-05-10T04:30:01;13.00;99.90
569;DHT22;269;48.884;9.192;2023-05-10T04:32:28;13.10;99.90
569;DHT22;269;48.884;9.192;2023-05-10T04:34:56;13.10;99.90
569;DHT22;269;48.884;9.192;2023-05-10T04:37:24;13.10;99.90
569;DHT22;269;48.884;9.192;2023-05-10T04:39:52;13.20;99.90
569;DHT22;269;48.884;9.192;2023-05-10T04:42:19;13.20;99.90
569;DHT22;269;48.884;9.192;2023-05-10T04:44:46;13.10;99.90
569;DHT22;269;48.884;9.192;2023-05-10T04:47:13;13.10;99.90
569;DHT22;269;48.884;9.192;2023-05-10T04:49:42;13.20;99.90
569;DHT22;269;48.884;9.192;2023-05-10T04:52:09;13.20;99.90
569;DHT22;269;48.884;9.192;2023-05-10T04:54:38;13.20;99.90
569;DHT22;269;48.884;9.192;2023-05-10T04:57:06;13.20;99.90
569;DHT22;269;48.884;9.192;2023-05-10T04:59:35;13.30;99.90
569;DHT22;269;48.884;9.192;2023-05-10T05:02:03;13.30;99.90
569;DHT22;269;48.884;9.192;2023-05-10T05:04:30;13.30;99.90
569;DHT22;269;48.884;9.192;2023-05-10T05:06:57;13.40;99.90
569;DHT22;269;48.884;9.192;2023-05-10T05:09:24;13.40;99.90
569;DHT22;269;48.884;9.192;2023-05-10T05:11:53;13.50;99.90
569;DHT22;269;48.884;9.192;2023-05-10T05:14:20;13.50;99.90
569;DHT22;269;48.884;9.192;2023-05-10T05:16:47;13.50;99.90
569;DHT22;269;48.884;9.192;2023-05-10T05:19:14;13.50;99.90
569;DHT22;269;48.884;9.192;2023-05-10T05:21:42;13.60;99.90
569;DHT22;269;48.884;9.192;2023-05-10T05:24:09;13.70;99.90
569;DHT22;269;48.884;9.192;2023-05-10T05:26:38;13.70;99.90
569;DHT22;269;48.884;9.192;2023-05-10T05:29:07;13.80;99.90
569;DHT22;269;48.884;9.192;2023-05-10T05:31:34;13.90;99.90
569;DHT22;269;48.884;9.192;2023-05-10T05:34:01;13.90;99.90
569;DHT22;269;48.884;9.192;2023-05-10T05:36:28;14.00;99.90
569;DHT22;269;48.884;9.192;2023-05-10T05:38:55;14.00;99.90
569;DHT22;269;48.884;9.192;2023-05-10T05:41:22;14.00;99.90
569;DHT22;269;48.884;9.192;2023-05-10T05:43:50;14.10;99.90
569;DHT22;269;48.884;9.192;2023-05-10T05:46:18;14.10;99.90
569;DHT22;269;48.884;9.192;2023-05-10T05:48:45;14.10;99.90
569;DHT22;269;48.884;9.192;2023-05-10T05:51:12;14.20;99.90
569;DHT22;269;48.884;9.192;2023-05-10T05:53:40;14.20;99.90
569;DHT22;269;48.884;9.192;2023-05-10T05:56:06;14.20;99.90
569;DHT22;269;48.884;9.192;2023-05-10T05:58:34;14.30;99.90
569;DHT22;269;48.884;9.192;2023-05-10T06:01:02;14.30;99.90
569;DHT22;269;48.884;9.192;2023-05-10T06:03:30;14.40;99.90
569;DHT22;269;48.884;9.192;2023-05-10T06:05:58;14.40;99.90
569;DHT22;269;48.884;9.192;2023-05-10T06:08:25;14.50;99.90
569;DHT22;269;48.884;9.192;2023-05-10T06:10:52;14.50;99.90
569;DHT22;269;48.884;9.192;2023-05-10T06:13:19;14.50;99.90
569;DHT22;269;48.884;9.192;2023-05-10T06:15:47;14.60;99.90
569;DHT22;269;48.884;9.192;2023-05-10T06:18:14;14.60;99.90
569;DHT22;269;48.884;9.192;2023-05-10T06:20:42;14.60;99.90
569;DHT22;269;48.884;9.192;2023-05-10T06:23:09;14.60;99.90
569;DHT22;269;48.884;9.192;2023-05-10T06:25:36;14.60;99.90
569;DHT22;269;48.884;9.192;2023-05-10T06:28:03;14.60;99.90
569;DHT22;269;48.884;9.192;2023-05-10T06:30:31;14.60;99.90
569;DHT22;269;48.884;9.192;2023-05-10T06:32:57;14.50;99.90
569;DHT22;269;48.884;9.192;2023-05-10T06:35:25;14.50;99.90
569;DHT22;269;48.884;9.192;2023-05-10T06:37:53;14.40;99.90
569;DHT22;269;48.884;9.192;2023-05-10T06:40:20;14.50;99.90
569;DHT22;269;48.884;9.192;2023-05-10T06:42:48;14.40;99.90
569;DHT22;269;48.884;9.192;2023-05-10T06:45:15;14.40;99.90
569;DHT22;269;48.884;9.192;2023-05-10T06:47:43;14.40;99.90
569;DHT22;269;48.884;9.192;2023-05-10T06:50:10;14.40;99.90
569;DHT22;269;48.884;9.192;2023-05-10T06:52:38;14.50;99.90
569;DHT22;269;48.884;9.192;2023-05-10T06:55:07;14.50;99.90
569;DHT22;269;48.884;9.192;2023-05-10T06:57:35;14.60;99.90
569;DHT22;269;48.884;9.192;2023-05-10T07:00:03;14.60;99.90
569;DHT22;269;48.884;9.192;2023-05-10T07:02:30;14.60;99.90
569;DHT22;269;48.884;9.192;2023-05-10T07:04:57;14.70;99.90
569;DHT22;269;48.884;9.192;2023-05-10T07:07:24;14.80;99.90
569;DHT22;269;48.884;9.192;2023-05-10T07:09:51;14.90;99.90
569;DHT22;269;48.884;9.192;2023-05-10T07:12:20;14.90;99.90
569;DHT22;269;48.884;9.192;2023-05-10T07:14:47;14.80;99.90
569;DHT22;269;48.884;9.192;2023-05-10T07:17:14;14.80;99.90
569;DHT22;269;48.884;9.192;2023-05-10T07:19:41;14.90;99.90
569;DHT22;269;48.884;9.192;2023-05-10T07:22:09;14.90;99.90
569;DHT22;269;48.884;9.192;2023-05-10T07:24:36;15.00;99.90
569;DHT22;269;48.884;9.192;2023-05-10T07:27:04;15.00;99.90
569;DHT22;269;48.884;9.192;2023-05-10T07:29:32;15.10;99.90
569;DHT22;269;48.884;9.192;2023-05-10T07:31:59;15.10;99.90
569;DHT22;269;48.884;9.192;2023-05-10T07:34:27;15.20;99.90
569;DHT22;269;48.884;9.192;2023-05-10T07:36:58;15.20;99.90
569;DHT22;269;48.884;9.192;2023-05-10T07:39:25;15.20;99.90
569;DHT22;269;48.884;9.192;2023-05-10T07:41:52;15.20;99.90
569;DHT22;269;48.884;9.192;2023-05-10T07:44:20;15.30;99.90
569;DHT22;269;48.884;9.192;2023-05-10T07:46:48;15.30;99.90
569;DHT22;269;48.884;9.192;2023-05-10T07:49:16;15.30;99.90
569;DHT22;269;48.884;9.192;2023-05-10T07:51:43;15.20;99.90
569;DHT22;269;48.884;9.192;2023-05-10T07:54:10;15.10;99.90
569;DHT22;269;48.884;9.192;2023-05-10T07:56:38;15.00;99.90
569;DHT22;269;48.884;9.192;2023-05-10T07:59:06;15.00;99.90
569;DHT22;269;48.884;9.192;2023-05-10T08:01:34;15.10;99.90
569;DHT22;269;48.884;9.192;2023-05-10T08:04:02;15.10;99.90
569;DHT22;269;48.884;9.192;2023-05-10T08:06:30;15.10;99.90
569;DHT22;269;48.884;9.192;2023-05-10T08:08:57;15.30;99.90
569;DHT22;269;48.884;9.192;2023-05-10T08:11:24;15.10;99.90
569;DHT22;269;48.884;9.192;2023-05-10T08:13:53;15.10;99.90
569;DHT22;269;48.884;9.192;2023-05-10T08:16:20;15.10;99.90
569;DHT22;269;48.884;9.192;2023-05-10T08:18:48;15.10;99.90
569;DHT22;269;48.884;9.192;2023-05-10T08:21:17;15.10;99.90
569;DHT22;269;48.884;9.192;2023-05-10T08:23:45;15.00;99.90
569;DHT22;269;48.884;9.192;2023-05-10T08:26:11;15.00;99.90
569;DHT22;269;48.884;9.192;2023-05-10T08:28:39;15.20;99.90
569;DHT22;269;48.884;9.192;2023-05-10T08:31:06;15.20;99.90
569;DHT22;269;48.884;9.192;2023-05-10T08:33:33;15.40;99.90
569;DHT22;269;48.884;9.192;2023-05-10T08:36:00;15.50;99.90
569;DHT22;269;48.884;9.192;2023-05-10T08:38:28;15.60;99.90
569;DHT22;269;48.884;9.192;2023-05-10T08:40:56;15.70;99.90
569;DHT22;269;48.884;9.192;2023-05-10T08:43:27;15.70;99.90
569;DHT22;269;48.884;9.192;2023-05-10T08:45:55;15.80;99.90
569;DHT22;269;48.884;9.192;2023-05-10T08:48:23;15.80;99.90
569;DHT22;269;48.884;9.192;2023-05-10T08:50:53;15.80;99.90
569;DHT22;269;48.884;9.192;2023-05-10T08:53:22;15.80;99.90
569;DHT22;269;48.884;9.192;2023-05-10T08:55:52;15.80;99.90
569;DHT22;269;48.884;9.192;2023-05-10T08:58:19;15.90;99.90
569;DHT22;269;48.884;9.192;2023-05-10T09:00:48;16.00;99.90
569;DHT22;269;48.884;9.192;2023-05-10T09:03:15;16.00;99.90
569;DHT22;269;48.884;9.192;2023-05-10T09:05:42;16.10;99.90
569;DHT22;269;48.884;9.192;2023-05-10T09:08:10;16.20;99.90
569;DHT22;269;48.884;9.192;2023-05-10T09:10:39;16.30;99.90
569;DHT22;269;48.884;9.192;2023-05-10T09:13:10;16.40;99.90
569;DHT22;269;48.884;9.192;2023-05-10T09:15:38;16.50;99.90
569;DHT22;269;48.884;9.192;2023-05-10T09:18:05;16.70;99.90
569;DHT22;269;48.884;9.192;2023-05-10T09:20:32;16.80;99.90
569;DHT22;269;48.884;9.192;2023-05-10T09:22:59;16.90;99.90
569;DHT22;269;48.884;9.192;2023-05-10T09:25:26;16.90;99.90
569;DHT22;269;48.884;9.192;2023-05-10T09:27:55;17.00;99.90
569;DHT22;269;48.884;9.192;2023-05-10T09:30:27;17.10;99.90
569;DHT22;269;48.884;9.192;2023-05-10T09:32:55;17.10;99.90
569;DHT22;269;48.884;9.192;2023-05-10T09:35:24;17.20;99.90
569;DHT22;269;48.884;9.192;2023-05-10T09:37:53;17.10;99.90
569;DHT22;269;48.884;9.192;2023-05-10T09:40:22;17.20;99.90
569;DHT22;269;48.884;9.192;2023-05-10T09:42:53;17.10;99.90
569;DHT22;269;48.884;9.192;2023-05-10T09:45:22;17.20;99.90
569;DHT22;269;48.884;9.192;2023-05-10T09:47:51;17.40;99.90
569;DHT22;269;48.884;9.192;2023-05-10T09:50:19;17.60;99.90
569;DHT22;269;48.884;9.192;2023-05-10T09:52:48;17.80;99.90
569;DHT22;269;48.884;9.192;2023-05-10T09:55:16;17.90;99.90
569;DHT22;269;48.884;9.192;2023-05-10T09:57:43;18.00;99.90
569;DHT22;269;48.884;9.192;2023-05-10T10:00:17;18.10;99.90
569;DHT22;269;48.884;9.192;2023-05-10T10:02:46;17.70;99.90
569;DHT22;269;48.884;9.192;2023-05-10T10:05:15;17.30;99.90
569;DHT22;269;48.884;9.192;2023-05-10T10:07:43;16.90;99.90
569;DHT22;269;48.884;9.192;2023-05-10T10:10:11;16.70;99.90
569;DHT22;269;48.884;9.192;2023-05-10T10:12:39;16.50;99.90
569;DHT22;269;48.884;9.192;2023-05-10T10:15:08;16.30;99.90
569;DHT22;269;48.884;9.192;2023-05-10T10:17:36;16.10;99.90
569;DHT22;269;48.884;9.192;2023-05-10T10:20:05;15.90;99.90
569;DHT22;269;48.884;9.192;2023-05-10T10:22:34;15.90;99.90
569;DHT22;269;48.884;9.192;2023-05-10T10:25:01;15.90;99.90
569;DHT22;269;48.884;9.192;2023-05-10T10:27:33;15.90;99.90
569;DHT22;269;48.884;9.192;2023-05-10T10:30:10;15.90;99.90
569;DHT22;269;48.884;9.192;2023-05-10T10:32:54;16.00;99.90
569;DHT22;269;48.884;9.192;2023-05-10T10:35:25;16.20;99.90
569;DHT22;269;48.884;9.192;2023-05-10T10:37:54;16.30;99.90
569;DHT22;269;48.884;9.192;2023-05-10T10:40:26;16.40;99.90
569;DHT22;269;48.884;9.192;2023-05-10T10:42:53;16.60;99.90
569;DHT22;269;48.884;9.192;2023-05-10T10:45:22;16.70;99.90
569;DHT22;269;48.884;9.192;2023-05-10T10:47:56;16.70;99.90
569;DHT22;269;48.884;9.192;2023-05-10T10:50:44;16.90;99.90
569;DHT22;269;48.884;9.192;2023-05-10T10:53:14;16.80;99.90
569;DHT22;269;48.884;9.192;2023-05-10T10:55:46;16.90;99.90
569;DHT22;269;48.884;9.192;2023-05-10T10:58:29;16.80;99.90
569;DHT22;269;48.884;9.192;2023-05-10T11:01:12;16.80;99.90
569;DHT22;269;48.884;9.192;2023-05-10T11:03:40;16.80;99.90
569;DHT22;269;48.884;9.192;2023-05-10T11:06:07;16.80;99.90
569;DHT22;269;48.884;9.192;2023-05-10T11:08:42;16.80;99.90
569;DHT22;269;48.884;9.192;2023-05-10T11:11:14;16.70;99.90
569;DHT22;269;48.884;9.192;2023-05-10T11:13:42;16.80;99.90
569;DHT22;269;48.884;9.192;2023-05-10T11:16:12;16.70;99.90
569;DHT22;269;48.884;9.192;2023-05-10T11:18:39;17.00;99.90
569;DHT22;269;48.884;9.192;2023-05-10T11:21:09;17.00;99.90
569;DHT22;269;48.884;9.192;2023-05-10T11:23:52;17.20;99.90
569;DHT22;269;48.884;9.192;2023-05-10T11:26:22;17.20;99.90
569;DHT22;269;48.884;9.192;2023-05-10T11:28:52;17.40;99.90
569;DHT22;269;48.884;9.192;2023-05-10T11:31:21;17.60;99.90
569;DHT22;269;48.884;9.192;2023-05-10T11:33:50;18.00;99.90
569;DHT22;269;48.884;9.192;2023-05-10T11:36:19;18.40;99.90
569;DHT22;269;48.884;9.192;2023-05-10T11:38:46;18.90;99.90
569;DHT22;269;48.884;9.192;2023-05-10T11:41:17;19.40;99.90
569;DHT22;269;48.884;9.192;2023-05-10T11:43:46;19.70;99.90
569;DHT22;269;48.884;9.192;2023-05-10T11:46:16;19.60;99.90
569;DHT22;269;48.884;9.192;2023-05-10T11:48:43;19.30;99.90
569;DHT22;269;48.884;9.192;2023-05-10T11:51:10;19.20;99.90
569;DHT22;269;48.884;9.192;2023-05-10T11:53:38;19.10;99.90
569;DHT22;269;48.884;9.192;2023-05-10T11:56:06;18.90;99.90
569;DHT22;269;48.884;9.192;2023-05-10T11:58:35;18.60;99.90
569;DHT22;269;48.884;9.192;2023-05-10T12:01:04;18.40;99.90
569;DHT22;269;48.884;9.192;2023-05-10T12:03:31;18.10;99.90
569;DHT22;269;48.884;9.192;2023-05-10T12:05:59;17.80;99.90
569;DHT22;269;48.884;9.192;2023-05-10T12:08:28;17.60;99.90
569;DHT22;269;48.884;9.192;2023-05-10T12:11:05;17.50;99.90
569;DHT22;269;48.884;9.192;2023-05-10T12:13:32;17.40;99.90
569;DHT22;269;48.884;9.192;2023-05-10T12:16:12;17.40;99.90
569;DHT22;269;48.884;9.192;2023-05-10T12:18:40;17.40;99.90
569;DHT22;269;48.884;9.192;2023-05-10T12:21:09;17.40;99.90
569;DHT22;269;48.884;9.192;2023-05-10T12:23:37;17.20;99.90
569;DHT22;269;48.884;9.192;2023-05-10T12:26:04;17.10;99.90
569;DHT22;269;48.884;9.192;2023-05-10T12:28:32;17.10;99.90
569;DHT22;269;48.884;9.192;2023-05-10T12:31:02;17.20;99.90
569;DHT22;269;48.884;9.192;2023-05-10T12:33:35;17.00;99.90
569;DHT22;269;48.884;9.192;2023-05-10T12:36:04;17.00;99.90
569;DHT22;269;48.884;9.192;2023-05-10T12:38:34;17.10;99.90
569;DHT22;269;48.884;9.192;2023-05-10T12:41:02;17.10;99.90
569;DHT22;269;48.884;9.192;2023-05-10T12:43:29;17.20;99.90
569;DHT22;269;48.884;9.192;2023-05-10T12:45:57;17.30;99.90
569;DHT22;269;48.884;9.192;2023-05-10T12:48:25;17.40;99.90
569;DHT22;269;48.884;9.192;2023-05-10T12:50:54;17.50;99.90
569;DHT22;269;48.884;9.192;2023-05-10T12:53:21;17.60;99.90
569;DHT22;269;48.884;9.192;2023-05-10T12:55:48;17.70;99.90
569;DHT22;269;48.884;9.192;2023-05-10T12:58:15;17.70;99.90
569;DHT22;269;48.884;9.192;2023-05-10T13:00:43;17.80;99.90
569;DHT22;269;48.884;9.192;2023-05-10T13:03:10;17.60;99.90
569;DHT22;269;48.884;9.192;2023-05-10T13:05:38;17.50;99.90
569;DHT22;269;48.884;9.192;2023-05-10T13:08:06;17.50;99.90
569;DHT22;269;48.884;9.192;2023-05-10T13:10:33;17.80;99.90
569;DHT22;269;48.884;9.192;2023-05-10T13:13:00;18.00;99.90
569;DHT22;269;48.884;9.192;2023-05-10T13:15:27;18.10;99.90
569;DHT22;269;48.884;9.192;2023-05-10T13:17:54;18.10;99.90
569;DHT22;269;48.884;9.192;2023-05-10T13:20:21;18.10;99.90
569;DHT22;269;48.884;9.192;2023-05-10T13:22:50;18.20;99.90
569;DHT22;269;48.884;9.192;2023-05-10T13:25:16;18.30;99.90
569;DHT22;269;48.884;9.192;2023-05-10T13:27:43;18.30;99.90
569;DHT22;269;48.884;9.192;2023-05-10T13:30:11;18.20;99.90
569;DHT22;269;48.884;9.192;2023-05-10T13:32:38;18.10;99.90
569;DHT22;269;48.884;9.192;2023-05-10T13:35:07;18.00;99.90
569;DHT22;269;48.884;9.192;2023-05-10T13:37:34;17.90;99.90
569;DHT22;269;48.884;9.192;2023-05-10T13:40:05;17.80;99.90
569;DHT22;269;48.884;9.192;2023-05-10T13:42:33;17.70;99.90
569;DHT22;269;48.884;9.192;2023-05-10T13:45:01;17.50;99.90
569;DHT22;269;48.884;9.192;2023-05-10T13:47:28;17.40;99.90
569;DHT22;269;48.884;9.192;2023-05-10T13:49:55;17.50;99.90
569;DHT22;269;48.884;9.192;2023-05-10T13:52:23;17.60;99.90
569;DHT22;269;48.884;9.192;2023-05-10T13:54:50;17.70;99.90
569;DHT22;269;48.884;9.192;2023-05-10T13:57:19;17.70;99.90
569;DHT22;269;48.884;9.192;2023-05-10T13:59:46;17.70;99.90
569;DHT22;269;48.884;9.192;2023-05-10T14:02:13;17.70;99.90
569;DHT22;269;48.884;9.192;2023-05-10T14:04:40;17.70;99.90
569;DHT22;269;48.884;9.192;2023-05-10T14:07:07;17.60;99.90
569;DHT22;269;48.884;9.192;2023-05-10T14:09:35;17.50;99.90
569;DHT22;269;48.884;9.192;2023-05-10T14:12:02;17.30;99.90
569;DHT22;269;48.884;9.192;2023-05-10T14:14:31;17.60;99.90
569;DHT22;269;48.884;9.192;2023-05-10T14:16:58;17.70;99.90
569;DHT22;269;48.884;9.192;2023-05-10T14:19:25;17.80;99.90
569;DHT22;269;48.884;9.192;2023-05-10T14:21:52;17.80;99.90
569;DHT22;269;48.884;9.192;2023-05-10T14:24:19;17.80;99.90
569;DHT22;269;48.884;9.192;2023-05-10T14:26:46;17.80;99.90
569;DHT22;269;48.884;9.192;2023-05-10T14:29:13;17.90;99.90
569;DHT22;269;48.884;9.192;2023-05-10T14:31:42;18.00;99.90
569;DHT22;269;48.884;9.192;2023-05-10T14:34:09;18.00;99.90
569;DHT22;269;48.884;9.192;2023-05-10T14:36:36;17.90;99.90
569;DHT22;269;48.884;9.192;2023-05-10T14:39:03;18.20;99.90
569;DHT22;269;48.884;9.192;2023-05-10T14:41:30;18.10;99.90
569;DHT22;269;48.884;9.192;2023-05-10T14:43:58;18.20;99.90
569;DHT22;269;48.884;9.192;2023-05-10T14:46:24;18.30;99.90
569;DHT22;269;48.884;9.192;2023-05-10T14:48:53;18.40;99.90
569;DHT22;269;48.884;9.192;2023-05-10T14:51:20;18.50;99.90
569;DHT22;269;48.884;9.192;2023-05-10T14:53:47;18.50;99.90
569;DHT22;269;48.884;9.192;2023-05-10T14:56:15;18.60;99.90
569;DHT22;269;48.884;9.192;2023-05-10T14:58:43;18.60;99.90
569;DHT22;269;48.884;9.192;2023-05-10T15:01:10;18.70;99.90
569;DHT22;269;48.884;9.192;2023-05-10T15:03:37;18.80;99.90
569;DHT22;269;48.884;9.192;2023-05-10T15:06:07;18.80;99.90
569;DHT22;269;48.884;9.192;2023-05-10T15:08:34;18.70;99.90
569;DHT22;269;48.884;9.192;2023-05-10T15:11:01;18.70;99.90
569;DHT22;269;48.884;9.192;2023-05-10T15:13:28;18.60;99.90
569;DHT22;269;48.884;9.192;2023-05-10T15:15:56;18.70;99.90
569;DHT22;269;48.884;9.192;2023-05-10T15:18:22;18.70;99.90
569;DHT22;269;48.884;9.192;2023-05-10T15:20:50;18.60;99.90
569;DHT22;269;48.884;9.192;2023-05-10T15:23:18;18.40;99.90
569;DHT22;269;48.884;9.192;2023-05-10T15:25:45;18.30;99.90
569;DHT22;269;48.884;9.192;2023-05-10T15:28:12;18.50;99.90
569;DHT22;269;48.884;9.192;2023-05-10T15:30:39;18.30;99.90
569;DHT22;269;48.884;9.192;2023-05-10T15:33:06;18.40;99.90
569;DHT22;269;48.884;9.192;2023-05-10T15:35:34;18.50;99.90
569;DHT22;269;48.884;9.192;2023-05-10T15:38:04;18.50;99.90
569;DHT22;269;48.884;9.192;2023-05-10T15:40:32;18.40;99.90
569;DHT22;269;48.884;9.192;2023-05-10T15:43:00;18.50;99.90
569;DHT22;269;48.884;9.192;2023-05-10T15:45:27;18.50;99.90
569;DHT22;269;48.884;9.192;2023-05-10T15:47:54;18.50;99.90
569;DHT22;269;48.884;9.192;2023-05-10T15:50:21;18.60;99.90
569;DHT22;269;48.884;9.192;2023-05-10T15:52:48;18.60;99.90
569;DHT22;269;48.884;9.192;2023-05-10T15:55:15;18.60;99.90
569;DHT22;269;48.884;9.192;2023-05-10T15:57:44;18.40;99.90
569;DHT22;269;48.884;9.192;2023-05-10T16:00:12;18.50;99.90
569;DHT22;269;48.884;9.192;2023-05-10T16:02:39;18.40;99.90
569;DHT22;269;48.884;9.192;2023-05-10T16:05:07;18.20;99.90
569;DHT22;269;48.884;9.192;2023-05-10T16:07:35;18.00;99.90
569;DHT22;269;48.884;9.192;2023-05-10T16:10:02;18.00;99.90
569;DHT22;269;48.884;9.192;2023-05-10T16:12:32;18.00;99.90
569;DHT22;269;48.884;9.192;2023-05-10T16:15:00;17.80;99.90
569;DHT22;269;48.884;9.192;2023-05-10T16:17:27;17.80;99.90
569;DHT22;269;48.884;9.192;2023-05-10T16:19:54;17.60;99.90
569;DHT22;269;48.884;9.192;2023-05-10T16:22:22;17.40;99.90
569;DHT22;269;48.884;9.192;2023-05-10T16:24:52;17.20;99.90
569;DHT22;269;48.884;9.192;2023-05-10T16:27:19;17.30;99.90
569;DHT22;269;48.884;9.192;2023-05-10T16:29:46;17.30;99.90
569;DHT22;269;48.884;9.192;2023-05-10T16:32:14;17.30;99.90
569;DHT22;269;48.884;9.192;2023-05-10T16:34:42;17.30;99.90
569;DHT22;269;48.884;9.192;2023-05-10T16:37:09;17.30;99.90
569;DHT22;269;48.884;9.192;2023-05-10T16:39:35;17.20;99.90
569;DHT22;269;48.884;9.192;2023-05-10T16:42:03;17.20;99.90
569;DHT22;269;48.884;9.192;2023-05-10T16:44:30;17.20;99.90
569;DHT22;269;48.884;9.192;2023-05-10T16:46:58;17.20;99.90